Time;durP1;ratioP1;P1;durP2;ratioP2;P2;SDS_P1;SDS_P2;PMS_P1;PMS_P2;Temp;Humidity;BMP_temperature;BMP_pressure;BME280_temperature;BME280_humidity;BME280_pressure;Samples;Min_cycle;Max_cycle;Signal;HPM_P1;HPM_P2
2021/11/02 00:00:20;;;;;;;89.67;48.97;;;;;;;8.63;77.00;100247.80;127216;1101;101526;-79
2021/11/02 00:03:08;;;;;;;92.07;50.10;;;;;;;8.62;76.66;100246.91;127350;1100;102026;-80
2021/11/02 00:05:36;;;;;;;89.20;48.73;;;;;;;8.62;77.23;100239.06;127276;1101;101489;-79
2021/11/02 00:08:06;;;;;;;88.10;48.27;;;;;;;8.64;76.59;100242.62;127340;1101;101670;-78
2021/11/02 00:10:35;;;;;;;80.87;47.13;;;;;;;8.67;77.30;100238.37;126320;1102;101640;-79
2021/11/02 00:13:03;;;;;;;85.43;46.63;;;;;;;8.68;76.77;100235.81;127399;1101;101484;-78
2021/11/02 00:15:35;;;;;;;89.73;48.77;;;;;;;8.69;77.04;100234.95;127365;1101;103086;-78
2021/11/02 00:18:06;;;;;;;84.17;47.53;;;;;;;8.70;77.33;100241.10;127366;1100;101635;-79
2021/11/02 00:20:37;;;;;;;87.13;46.50;;;;;;;8.73;77.02;100233.37;126286;1102;101593;-79
2021/11/02 00:23:07;;;;;;;86.93;47.90;;;;;;;8.73;76.73;100235.98;127294;1101;101530;-78
2021/11/02 00:25:36;;;;;;;83.00;46.80;;;;;;;8.72;76.75;100234.20;126378;1102;101598;-78
2021/11/02 00:28:04;;;;;;;80.40;45.47;;;;;;;8.70;76.69;100235.88;127387;1101;101982;-78
2021/11/02 00:30:33;;;;;;;83.23;46.90;;;;;;;8.70;77.01;100239.37;127180;1101;101553;-79
2021/11/02 00:33:01;;;;;;;90.30;47.13;;;;;;;8.70;77.19;100230.64;127381;1101;101526;-79
2021/11/02 00:35:30;;;;;;;83.73;46.27;;;;;;;8.69;77.29;100228.84;127382;1101;101607;-79
2021/11/02 00:37:57;;;;;;;84.40;44.73;;;;;;;8.67;76.94;100227.91;126384;1102;101627;-78
2021/11/02 00:40:26;;;;;;;82.63;46.17;;;;;;;8.64;77.11;100224.31;127192;1101;101923;-79
2021/11/02 00:42:56;;;;;;;85.93;48.37;;;;;;;8.64;77.50;100229.55;127291;1100;101787;-79
2021/11/02 00:45:28;;;;;;;83.77;45.13;;;;;;;8.67;77.30;100230.52;127349;1101;101562;-79
2021/11/02 00:47:57;;;;;;;82.23;45.93;;;;;;;8.65;77.55;100220.00;126336;1102;101600;-79
2021/11/02 00:50:26;;;;;;;82.30;44.97;;;;;;;8.65;76.94;100222.61;127251;1101;101879;-79
2021/11/02 00:52:56;;;;;;;80.27;46.10;;;;;;;8.66;77.32;100221.76;127350;1101;101971;-78
2021/11/02 00:55:24;;;;;;;83.33;45.73;;;;;;;8.69;77.37;100213.15;127292;1101;101422;-78
2021/11/02 00:57:52;;;;;;;85.50;47.27;;;;;;;8.71;77.08;100221.94;127327;1101;101507;-78
2021/11/02 01:00:20;;;;;;;86.70;48.60;;;;;;;8.73;77.46;100215.06;127178;1101;101118;-78
2021/11/02 01:02:48;;;;;;;88.00;48.87;;;;;;;8.74;76.96;100214.20;127358;1101;101026;-80
2021/11/02 01:05:17;;;;;;;87.40;48.87;;;;;;;8.76;77.16;100209.95;127403;1101;102238;-80
2021/11/02 01:07:45;;;;;;;90.03;49.67;;;;;;;8.71;77.42;100209.77;127303;1101;101255;-79
2021/11/02 01:10:16;;;;;;;92.23;51.10;;;;;;;8.72;77.21;100202.80;127217;1101;101612;-79
2021/11/02 01:12:48;;;;;;;89.70;48.40;;;;;;;8.72;77.80;100200.19;127308;1101;101590;-79
2021/11/02 01:15:20;;;;;;;84.00;48.53;;;;;;;8.71;76.87;100203.63;127324;1101;101521;-79
2021/11/02 01:17:48;;;;;;;87.97;48.07;;;;;;;8.70;77.41;100197.52;127378;1101;101975;-79
2021/11/02 01:20:17;;;;;;;80.90;46.17;;;;;;;8.70;77.09;100196.63;127183;1101;102039;-80
2021/11/02 01:22:47;;;;;;;85.57;46.50;;;;;;;8.69;77.35;100190.48;127318;1101;101059;-79
2021/11/02 01:25:16;;;;;;;79.47;45.60;;;;;;;8.70;77.87;100191.41;127389;1101;101955;-80
2021/11/02 01:27:46;;;;;;;81.23;45.23;;;;;;;8.71;77.11;100187.93;127357;1102;101562;-79
2021/11/02 01:30:19;;;;;;;86.53;47.00;;;;;;;8.72;77.06;100180.14;127277;1101;102218;-80
2021/11/02 01:32:49;;;;;;;88.93;48.00;;;;;;;8.73;77.54;100181.05;127337;1100;101265;-80
2021/11/02 01:35:18;;;;;;;84.97;46.53;;;;;;;8.72;77.33;100174.03;126390;1101;101589;-81
2021/11/02 01:37:56;;;;;;;82.63;43.47;;;;;;;8.73;77.60;100167.97;127361;1101;101543;-80
2021/11/02 01:40:26;;;;;;;;;;;;;;;8.66;77.44;100171.18;127426;1101;101967;-79
2021/11/02 01:42:55;;;;;;;81.87;46.53;;;;;;;8.63;77.21;100172.86;127346;1101;101914;-80
2021/11/02 01:45:27;;;;;;;85.30;46.87;;;;;;;8.65;77.35;100170.30;127289;1101;101944;-80
2021/11/02 01:47:56;;;;;;;84.43;45.10;;;;;;;8.66;77.50;100165.95;127346;1101;101484;-80
2021/11/02 01:50:29;;;;;;;82.83;46.87;;;;;;;8.67;77.48;100167.74;127329;1101;101320;-80
2021/11/02 01:52:57;;;;;;;83.53;45.80;;;;;;;8.67;77.42;100166.01;127376;1101;101556;-80
2021/11/02 01:55:26;;;;;;;80.83;44.83;;;;;;;8.67;77.90;100167.74;127355;1101;101997;-80
2021/11/02 01:57:54;;;;;;;86.83;42.60;;;;;;;8.67;77.79;100165.13;126264;1101;101632;-79
2021/11/02 02:00:24;;;;;;;88.47;45.50;;;;;;;8.66;77.80;100164.21;127435;1101;101616;-80
2021/11/02 02:03:08;;;;;;;85.13;45.83;;;;;;;8.64;77.39;100164.16;127327;1102;101582;-80
2021/11/02 02:05:47;;;;;;;80.87;44.43;;;;;;;8.64;77.51;100160.66;127322;1101;101520;-80
2021/11/02 02:08:22;;;;;;;84.67;44.30;;;;;;;8.62;77.72;100160.60;126371;1102;102047;-79
2021/11/02 02:11:00;;;;;;;84.00;44.23;;;;;;;8.60;77.92;100162.28;127284;1101;102875;-80
2021/11/02 02:13:42;;;;;;;86.60;45.93;;;;;;;8.61;77.44;100150.96;127285;1101;101544;-79
2021/11/02 02:16:20;;;;;;;79.73;43.13;;;;;;;8.60;77.78;100154.43;127398;1101;101520;-79
2021/11/02 02:19:00;;;;;;;81.50;43.93;;;;;;;8.60;77.24;100146.58;127407;1101;101520;-80
2021/11/02 02:21:45;;;;;;;81.43;43.50;;;;;;;8.60;77.47;100143.97;127282;1101;103044;-80
2021/11/02 02:24:32;;;;;;;82.27;44.77;;;;;;;8.63;77.47;100149.31;127338;1101;102003;-79
2021/11/02 02:27:21;;;;;;;82.23;44.10;;;;;;;8.66;78.01;100150.25;127333;1101;101057;-79
2021/11/02 02:29:51;;;;;;;87.03;45.13;;;;;;;8.67;77.35;100152.93;127304;1101;101939;-79
2021/11/02 02:32:23;;;;;;;85.27;42.20;;;;;;;8.64;77.95;100148.46;127206;1101;102034;-80
2021/11/02 02:34:57;;;;;;;80.17;43.30;;;;;;;8.65;77.98;100144.14;127305;1101;103100;-80
2021/11/02 02:37:28;;;;;;;83.58;45.03;;;;;;;8.67;77.47;100141.59;127319;1100;101936;-80
2021/11/02 02:39:59;;;;;;;;;;;;;;;8.69;77.50;100142.52;126526;1101;101617;-79
2021/11/02 02:42:28;;;;;;;80.27;42.60;;;;;;;8.70;78.09;100139.97;127166;1101;101084;-80
2021/11/02 02:44:58;;;;;;;79.07;43.00;;;;;;;8.71;78.14;100143.46;126390;1102;101162;-80
2021/11/02 02:47:28;;;;;;;82.20;43.23;;;;;;;8.75;78.03;100145.37;127394;1100;102287;-80
2021/11/02 02:49:58;;;;;;;81.60;44.67;;;;;;;8.75;77.74;100147.98;127301;1100;101558;-80
2021/11/02 02:52:28;;;;;;;81.23;44.20;;;;;;;8.74;77.73;100143.58;127176;1100;101680;-79
2021/11/02 02:54:58;;;;;;;87.13;47.37;;;;;;;8.73;77.54;100142.70;127311;1101;101596;-80
2021/11/02 02:57:29;;;;;;;86.23;47.20;;;;;;;8.73;77.63;100140.08;127340;1102;101971;-80
2021/11/02 03:00:05;;;;;;;91.30;49.27;;;;;;;8.75;77.47;100145.37;127323;1101;102500;-79
2021/11/02 03:02:36;;;;;;;87.67;47.20;;;;;;;8.78;77.91;100146.36;127155;1101;101586;-80
2021/11/02 03:05:07;;;;;;;87.80;47.57;;;;;;;8.80;77.92;100146.42;126394;1102;101602;-80
2021/11/02 03:07:37;;;;;;;83.40;47.53;;;;;;;8.81;78.19;100141.25;127356;1101;101581;-79
2021/11/02 03:10:08;;;;;;;87.33;47.30;;;;;;;8.86;78.17;100136.19;127351;1101;101101;-80
2021/11/02 03:12:42;;;;;;;87.50;44.63;;;;;;;8.88;78.24;100138.86;127236;1101;102004;-79
2021/11/02 03:15:39;;;;;;;84.47;45.60;;;;;;;8.87;77.66;100132.74;127368;1100;101677;-78
2021/11/02 03:18:22;;;;;;;84.20;44.17;;;;;;;8.84;78.06;100130.02;126375;1102;101710;-78
2021/11/02 03:48:17;;;;;;;87.47;44.10;;;;;;;8.91;77.85;100118.03;127365;1101;101580;-79
2021/11/02 03:56:17;;;;;;;81.07;39.73;;;;;;;8.83;77.99;100112.52;127386;1101;101572;-80
2021/11/02 03:59:02;;;;;;;76.33;39.03;;;;;;;8.81;77.92;100103.73;127357;1101;101533;-80
2021/11/02 04:01:45;;;;;;;80.27;40.03;;;;;;;8.83;78.20;100103.80;127376;1101;101594;-80
2021/11/02 04:23:40;;;;;;;67.90;34.13;;;;;;;8.77;77.93;100091.37;127313;1101;101965;-80
2021/11/02 05:09:50;;;;;;;51.27;26.87;;;;;;;9.00;78.79;100073.88;126372;1102;101695;-80
2021/11/02 05:12:54;;;;;;;53.00;27.60;;;;;;;9.05;78.84;100074.05;127385;1101;101603;-81
2021/11/02 05:57:10;;;;;;;62.47;31.07;;;;;;;9.35;78.84;100106.52;126303;1105;102059;-81
2021/11/02 05:59:41;;;;;;;66.20;34.23;;;;;;;9.34;78.36;100107.34;126301;1102;101772;-81
2021/11/02 06:02:24;;;;;;;61.37;31.40;;;;;;;9.35;78.19;100103.91;126328;1102;101745;-81
2021/11/02 06:05:09;;;;;;;62.10;29.57;;;;;;;9.37;78.23;100106.58;126846;1101;101929;-81
2021/11/02 06:07:54;;;;;;;57.90;30.60;;;;;;;9.41;78.72;100097.08;126770;1100;101996;-81
2021/11/02 06:29:43;;;;;;;54.07;27.90;;;;;;;9.59;78.37;100107.30;126282;1105;101723;-78
2021/11/02 06:32:20;;;;;;;50.27;27.70;;;;;;;9.65;78.28;100097.91;126283;1105;101729;-77
2021/11/02 06:35:05;;;;;;;52.80;27.67;;;;;;;9.71;78.95;100103.34;126269;1105;101968;-77
2021/11/02 06:37:50;;;;;;;47.50;26.70;;;;;;;9.74;78.63;100096.42;126279;1105;103058;-78
2021/11/02 06:43:13;;;;;;;51.77;28.03;;;;;;;9.79;78.86;100105.34;126319;1105;101605;-77
2021/11/02 06:48:46;;;;;;;48.07;26.47;;;;;;;9.83;78.25;100094.09;126318;1101;102052;-77
2021/11/02 07:17:31;;;;;;;58.93;31.67;;;;;;;10.50;78.17;100087.47;126606;1101;101642;-78
2021/11/02 07:20:24;;;;;;;54.13;29.57;;;;;;;10.57;78.61;100075.41;126897;1101;119204;-78
2021/11/02 07:23:22;;;;;;;54.03;29.57;;;;;;;10.63;78.31;100072.97;126300;1102;101611;-79
2021/11/02 07:26:03;;;;;;;54.57;30.30;;;;;;;10.71;78.36;100065.31;127049;1101;101657;-77
2021/11/02 08:46:19;;;;;;;43.73;25.67;;;;;;;12.01;76.59;99967.86;126793;1100;103124;-78
2021/11/02 08:48:55;;;;;;;43.93;23.77;;;;;;;12.10;76.56;99964.52;126875;1100;101885;-79
2021/11/02 08:51:26;;;;;;;45.20;24.43;;;;;;;12.22;76.97;99953.38;126738;1102;101627;-78
2021/11/02 08:54:07;;;;;;;42.23;25.13;;;;;;;12.33;76.90;99951.84;126327;1105;101565;-77
2021/11/02 08:56:39;;;;;;;44.57;26.60;;;;;;;12.35;76.40;99954.50;126364;1105;101706;-78
2021/11/02 08:59:10;;;;;;;43.40;25.60;;;;;;;12.38;76.64;99939.65;126309;1102;102378;-78
2021/11/02 09:01:40;;;;;;;42.23;25.63;;;;;;;12.44;76.05;99938.89;126876;1101;101323;-77
2021/11/02 09:04:10;;;;;;;42.67;25.13;;;;;;;12.46;75.88;99936.29;126823;1102;102012;-78
2021/11/02 09:06:49;;;;;;;41.27;23.80;;;;;;;12.55;76.31;99937.34;126688;1101;101667;-77
2021/11/02 09:09:22;;;;;;;42.73;25.03;;;;;;;12.70;76.37;99930.58;126929;1101;101614;-79
2021/11/02 09:11:56;;;;;;;43.68;24.18;;;;;;;12.68;75.34;99929.67;126310;1101;101981;-78
2021/11/02 09:14:30;;;;;;;41.37;25.52;;;;;;;12.69;76.27;99931.45;126809;1101;101648;-78
2021/11/02 09:17:04;;;;;;;43.33;25.60;;;;;;;12.76;75.87;99928.05;126956;1101;101624;-78
2021/11/02 09:19:38;;;;;;;44.43;27.70;;;;;;;12.83;76.08;99927.31;127098;1101;101658;-78
2021/11/02 09:22:49;;;;;;;47.63;27.10;;;;;;;12.86;76.35;99932.63;126412;1102;101197;-78
2021/11/02 09:25:22;;;;;;;46.47;26.40;;;;;;;12.83;75.81;99924.67;126487;1101;118935;-78
2021/11/02 09:27:59;;;;;;;42.43;23.77;;;;;;;12.82;76.07;99925.53;126327;1102;102012;-79
2021/11/02 09:30:29;;;;;;;47.07;25.10;;;;;;;12.84;75.89;99917.66;126749;1102;101212;-78
2021/11/02 09:32:59;;;;;;;41.03;23.03;;;;;;;12.90;75.72;99912.50;126784;1101;101524;-78
2021/11/02 09:35:33;;;;;;;38.97;22.13;;;;;;;13.02;76.31;99904.80;126291;1102;101607;-77
2021/11/02 09:38:14;;;;;;;39.03;22.63;;;;;;;13.16;75.81;99891.85;127184;1101;101983;-77
2021/11/02 09:41:15;;;;;;;40.83;24.13;;;;;;;13.23;75.32;99896.36;126327;1102;101897;-80
2021/11/02 09:44:15;;;;;;;38.60;22.47;;;;;;;13.38;75.08;99886.94;126299;1102;101383;-79
2021/11/02 09:47:23;;;;;;;37.87;22.07;;;;;;;13.55;75.48;99879.27;126302;1105;101690;-79
2021/11/02 09:50:14;;;;;;;34.63;19.43;;;;;;;13.82;75.54;99866.45;126323;1105;101757;-79
2021/11/02 09:53:15;;;;;;;32.57;18.20;;;;;;;14.09;74.73;99858.86;126317;1105;102031;-80
2021/11/02 09:56:08;;;;;;;32.07;18.70;;;;;;;14.29;75.44;99846.75;126245;1105;101622;-79
2021/11/02 09:59:11;;;;;;;32.73;19.40;;;;;;;14.48;75.23;99849.57;126329;1105;101939;-79
2021/11/02 10:01:48;;;;;;;35.60;19.40;;;;;;;14.58;74.24;99843.48;126277;1105;101601;-78
2021/11/02 10:04:41;;;;;;;32.90;19.40;;;;;;;14.68;74.45;99840.09;126314;1105;101620;-78
2021/11/02 10:07:28;;;;;;;33.30;19.70;;;;;;;14.80;73.47;99836.66;126293;1105;102698;-78
2021/11/02 10:10:12;;;;;;;37.43;19.27;;;;;;;14.83;74.00;99833.16;126272;1105;102104;-78
2021/11/02 10:12:58;;;;;;;32.77;19.00;;;;;;;14.81;73.88;99822.59;126293;1105;101992;-78
2021/11/02 10:15:44;;;;;;;32.20;19.53;;;;;;;14.77;74.01;99817.27;126248;1105;102037;-78
2021/11/02 10:18:33;;;;;;;29.60;15.50;;;;;;;14.68;73.09;99818.97;126495;1102;101610;-77
2021/11/02 10:21:28;;;;;;;28.97;15.40;;;;;;;14.54;73.25;99823.23;126845;1101;103434;-78
2021/11/02 10:24:22;;;;;;;27.93;16.13;;;;;;;14.44;73.07;99811.68;126613;1101;101540;-79
2021/11/02 10:27:17;;;;;;;28.27;16.30;;;;;;;14.51;72.29;99810.87;126368;1101;101893;-74
2021/11/02 10:30:12;;;;;;;28.73;15.83;;;;;;;14.52;73.22;99795.91;126311;1102;101767;-74
2021/11/02 10:32:48;;;;;;;30.80;16.43;;;;;;;14.55;72.04;99795.94;126536;1101;101615;-77
2021/11/02 10:35:21;;;;;;;27.73;14.40;;;;;;;14.69;72.28;99793.44;127052;1100;103075;-74
2021/11/02 10:38:02;;;;;;;28.00;14.43;;;;;;;14.73;72.24;99790.84;127288;1101;101505;-75
2021/11/02 10:40:47;;;;;;;29.20;14.93;;;;;;;14.77;71.23;99788.22;126347;1105;101515;-74
2021/11/02 10:43:45;;;;;;;27.03;15.53;;;;;;;14.71;71.58;99784.67;126360;1102;101988;-75
2021/11/02 10:46:19;;;;;;;28.23;15.83;;;;;;;14.67;70.83;99788.15;126327;1102;101976;-75
2021/11/02 10:48:50;;;;;;;27.07;15.75;;;;;;;14.56;70.88;99788.03;127054;1101;102995;-75
2021/11/02 10:51:37;;;;;;;28.07;15.67;;;;;;;14.51;71.79;99797.67;127146;1101;101346;-74
2021/11/02 10:54:30;;;;;;;28.73;15.97;;;;;;;14.52;71.30;99790.63;126360;1101;101715;-77
2021/11/02 10:57:20;;;;;;;27.23;15.77;;;;;;;14.44;70.44;99789.69;126668;1101;101879;-75
2021/11/02 10:59:50;;;;;;;25.20;14.60;;;;;;;14.43;71.66;99793.19;126344;1102;101768;-76
2021/11/02 11:02:26;;;;;;;28.17;13.93;;;;;;;14.38;69.11;99782.59;126341;1102;102791;-77
2021/11/02 11:04:57;;;;;;;27.07;14.97;;;;;;;14.26;69.73;99791.30;126293;1102;101690;-76
2021/11/02 11:07:29;;;;;;;28.20;15.50;;;;;;;14.20;69.87;99784.20;126847;1101;101637;-77
2021/11/02 11:10:04;;;;;;;30.40;16.93;;;;;;;14.18;70.58;99782.44;126586;1101;101668;-77
2021/11/02 11:12:34;;;;;;;;;;;;;;;14.17;68.81;99773.62;126656;1102;102211;-77
2021/11/02 11:17:52;;;;;;;28.35;16.32;;;;;;;14.23;70.61;99774.53;126164;1102;101741;-81
2021/11/02 11:20:24;;;;;;;;;;;;;;;14.30;70.73;99763.17;126256;1102;101880;-80
2021/11/02 11:22:55;;;;;;;26.17;15.13;;;;;;;14.31;70.90;99757.91;126295;1105;102343;-80
2021/11/02 11:28:33;;;;;;;25.70;14.47;;;;;;;14.34;70.69;99752.66;126208;1102;102072;-80
2021/11/02 11:31:08;;;;;;;27.40;15.00;;;;;;;14.34;69.67;99764.98;126243;1102;101875;-80
2021/11/02 11:33:41;;;;;;;28.73;15.67;;;;;;;14.32;69.71;99751.78;126300;1105;101686;-79
2021/11/02 11:36:09;;;;;;;29.37;16.03;;;;;;;14.24;70.30;99747.29;126321;1102;102081;-79
2021/11/02 11:38:43;;;;;;;27.37;16.30;;;;;;;14.17;69.48;99741.95;126256;1105;101763;-79
2021/11/02 11:41:13;;;;;;;27.87;15.07;;;;;;;14.15;69.28;99737.56;126229;1105;103002;-81
2021/11/02 11:43:43;;;;;;;28.33;15.50;;;;;;;14.12;69.84;99737.53;126292;1103;102123;-81
2021/11/02 11:46:23;;;;;;;24.20;14.83;;;;;;;14.16;69.58;99736.66;126323;1102;101693;-80
2021/11/02 11:48:59;;;;;;;30.00;14.20;;;;;;;14.18;69.38;99740.23;126940;1101;101846;-79
2021/11/02 11:51:32;;;;;;;26.73;14.90;;;;;;;14.21;69.81;99737.61;126997;1100;101522;-80
2021/11/02 11:54:24;;;;;;;25.07;15.37;;;;;;;14.23;70.25;99730.59;127136;1101;101917;-79
2021/11/02 11:57:00;;;;;;;28.73;16.00;;;;;;;14.26;70.03;99722.70;126297;1102;101732;-78
2021/11/02 11:59:37;;;;;;;25.20;15.50;;;;;;;14.28;69.54;99713.02;126888;1101;101787;-78
2021/11/02 12:02:15;;;;;;;27.13;15.73;;;;;;;14.25;68.91;99720.91;126372;1102;101550;-79
2021/11/02 12:04:52;;;;;;;28.87;15.83;;;;;;;14.22;69.95;99710.34;126362;1102;101597;-80
2021/11/02 12:07:32;;;;;;;28.10;14.80;;;;;;;14.27;69.48;99713.88;126344;1102;101990;-79
2021/11/02 12:10:06;;;;;;;25.67;13.97;;;;;;;14.35;68.95;99712.22;126291;1102;101960;-78
2021/11/02 12:12:38;;;;;;;25.75;14.55;;;;;;;14.38;69.74;99708.70;126945;1101;101116;-79
2021/11/02 12:15:25;;;;;;;26.40;15.20;;;;;;;14.35;69.39;99706.03;126270;1102;101640;-79
2021/11/02 12:18:26;;;;;;;26.93;14.77;;;;;;;14.35;68.95;99699.02;126407;1102;101626;-78
2021/11/02 12:20:58;;;;;;;27.03;16.10;;;;;;;14.34;69.45;99702.52;126301;1102;103482;-79
2021/11/02 12:23:39;;;;;;;28.37;15.63;;;;;;;14.33;68.29;99703.37;126303;1102;101823;-78
2021/11/02 12:26:11;;;;;;;26.63;15.33;;;;;;;14.25;68.18;99706.84;127223;1101;101165;-79
2021/11/02 12:28:43;;;;;;;;;;;;;;;14.20;68.67;99709.45;127166;1102;101711;-79
2021/11/02 12:31:20;;;;;;;28.43;14.77;;;;;;;14.14;69.28;99709.39;126288;1102;101356;-79
2021/11/02 12:33:53;;;;;;;26.17;15.27;;;;;;;14.08;68.26;99701.43;127001;1101;101966;-79
2021/11/02 12:36:24;;;;;;;25.33;14.60;;;;;;;14.07;69.13;99707.56;126300;1103;101315;-79
2021/11/02 12:39:03;;;;;;;26.70;14.70;;;;;;;14.03;68.56;99702.27;126343;1102;101612;-78
2021/11/02 12:41:48;;;;;;;29.47;15.20;;;;;;;14.06;69.22;99703.18;127240;1101;101676;-79
2021/11/02 12:44:33;;;;;;;25.43;13.93;;;;;;;14.07;68.82;99708.47;126346;1102;101820;-78
2021/11/02 12:47:14;;;;;;;25.13;14.80;;;;;;;14.08;69.03;99701.43;126345;1102;103400;-77
2021/11/02 12:49:48;;;;;;;30.00;16.60;;;;;;;14.05;68.54;99698.77;126929;1101;101565;-77
2021/11/02 12:52:20;;;;;;;26.97;15.90;;;;;;;14.00;68.84;99701.36;126982;1101;101661;-77
2021/11/02 12:54:59;;;;;;;27.97;15.90;;;;;;;14.02;68.21;99699.61;127137;1101;101510;-77
2021/11/02 12:57:38;;;;;;;26.77;15.40;;;;;;;14.03;68.70;99702.27;126344;1105;101194;-77
2021/11/02 13:00:10;;;;;;;28.17;15.23;;;;;;;14.03;68.13;99699.62;126312;1102;102458;-77
2021/11/02 13:02:41;;;;;;;28.07;15.43;;;;;;;13.99;69.08;99700.48;127042;1100;101842;-77
2021/11/02 13:05:18;;;;;;;27.80;15.10;;;;;;;13.97;68.31;99696.93;126829;1102;101204;-76
2021/11/02 13:08:02;;;;;;;29.82;15.70;;;;;;;13.94;68.13;99696.91;126802;1101;101747;-77
2021/11/02 13:10:31;;;;;;;31.23;16.50;;;;;;;13.91;69.20;99701.27;126789;1102;101427;-76
2021/11/02 13:13:07;;;;;;;27.87;15.80;;;;;;;13.86;68.47;99703.00;127195;1101;102049;-76
2021/11/02 13:15:48;;;;;;;28.17;15.33;;;;;;;13.82;68.99;99702.06;126927;1101;101592;-77
2021/11/02 13:18:31;;;;;;;30.03;15.77;;;;;;;13.77;68.38;99704.65;127150;1101;101562;-74
2021/11/02 13:21:25;;;;;;;28.57;16.30;;;;;;;13.70;69.03;99691.39;127083;1101;101654;-75
2021/11/02 13:24:19;;;;;;;29.80;16.27;;;;;;;13.62;68.43;99697.48;127165;1102;101551;-76
2021/11/02 13:26:53;;;;;;;32.50;17.30;;;;;;;13.58;68.66;99693.03;126494;1102;101889;-76
2021/11/02 13:29:22;;;;;;;28.77;15.90;;;;;;;13.58;68.91;99693.03;126335;1102;101614;-75
2021/11/02 13:31:54;;;;;;;27.93;16.17;;;;;;;13.59;68.43;99693.95;126304;1102;101362;-76
2021/11/02 13:34:41;;;;;;;29.23;16.80;;;;;;;13.57;68.38;99693.92;127006;1101;101525;-76
2021/11/02 13:37:25;;;;;;;30.73;16.57;;;;;;;13.56;68.93;99694.78;126359;1102;101520;-75
2021/11/02 13:40:04;;;;;;;29.15;17.23;;;;;;;13.52;69.22;99697.38;126341;1102;103160;-76
2021/11/02 13:42:54;;;;;;;29.97;15.90;;;;;;;13.50;69.03;99686.81;126829;1100;101589;-77
2021/11/02 13:45:26;;;;;;;26.70;15.30;;;;;;;13.51;68.89;99688.59;127124;1101;101433;-76
2021/11/02 13:47:55;;;;;;;29.83;15.50;;;;;;;13.53;69.24;99688.61;126290;1105;101623;-76
2021/11/02 13:50:24;;;;;;;29.77;16.27;;;;;;;13.52;68.83;99684.19;127202;1101;101556;-77
2021/11/02 13:52:54;;;;;;;28.93;16.30;;;;;;;13.46;69.05;99682.36;126928;1101;102119;-76
2021/11/02 13:55:24;;;;;;;27.70;15.93;;;;;;;13.41;69.04;99687.58;127159;1102;101787;-75
2021/11/02 13:57:53;;;;;;;31.40;18.10;;;;;;;13.39;69.65;99683.19;127304;1101;101537;-76
2021/11/02 14:00:24;;;;;;;34.63;17.13;;;;;;;13.35;69.22;99684.00;126318;1101;101693;-75
2021/11/02 14:02:57;;;;;;;28.13;16.03;;;;;;;13.33;69.06;99676.08;126709;1100;102177;-77
2021/11/02 14:05:30;;;;;;;26.97;15.00;;;;;;;13.33;69.62;99678.72;126332;1102;103140;-78
2021/11/02 14:08:00;;;;;;;26.80;16.17;;;;;;;13.33;68.91;99680.44;126343;1102;101394;-77
2021/11/02 14:10:30;;;;;;;30.23;15.53;;;;;;;13.31;69.46;99673.39;126674;1102;101766;-78
2021/11/02 14:12:59;;;;;;;27.57;15.40;;;;;;;13.28;68.95;99670.73;126592;1101;101953;-79
2021/11/02 14:15:29;;;;;;;26.20;15.53;;;;;;;13.27;69.03;99657.53;126562;1102;101507;-79
2021/11/02 14:18:13;;;;;;;24.90;14.23;;;;;;;13.25;69.81;99654.88;126727;1101;102013;-77
2021/11/02 14:20:49;;;;;;;29.70;15.50;;;;;;;13.20;69.65;99648.69;126693;1101;102217;-78
2021/11/02 14:23:34;;;;;;;25.43;14.00;;;;;;;13.17;69.84;99653.05;126586;1102;101979;-77
2021/11/02 14:26:25;;;;;;;27.57;15.13;;;;;;;13.12;69.68;99655.63;126341;1101;101688;-79
2021/11/02 14:28:55;;;;;;;24.63;14.23;;;;;;;13.10;69.96;99644.16;126965;1101;101643;-78
2021/11/02 14:31:47;;;;;;;25.20;13.70;;;;;;;13.08;69.28;99640.64;126843;1101;101951;-77
2021/11/02 14:34:41;;;;;;;26.17;13.80;;;;;;;13.02;70.17;99640.56;126255;1105;107000;-76
2021/11/02 14:37:15;;;;;;;26.67;13.83;;;;;;;12.95;69.85;99637.86;126617;1101;101637;-78
2021/11/02 14:40:01;;;;;;;28.20;14.57;;;;;;;12.92;70.27;99634.31;126328;1105;101574;-78
2021/11/02 14:42:45;;;;;;;26.33;13.77;;;;;;;12.85;70.06;99638.59;126395;1102;101639;-77
2021/11/02 14:45:17;;;;;;;27.63;14.23;;;;;;;12.80;70.03;99634.16;127105;1100;103087;-77
2021/11/02 14:47:50;;;;;;;25.83;14.23;;;;;;;12.76;70.42;99635.84;126331;1105;101672;-78
2021/11/02 14:50:47;;;;;;;28.43;15.63;;;;;;;12.72;69.88;99634.06;126694;1102;101649;-77
2021/11/02 14:53:18;;;;;;;30.57;15.07;;;;;;;12.67;70.53;99630.45;126346;1102;101527;-77
2021/11/02 14:55:59;;;;;;;29.60;16.03;;;;;;;12.64;70.20;99630.45;127253;1101;101550;-76
2021/11/02 14:58:52;;;;;;;28.53;15.73;;;;;;;12.60;70.15;99624.23;127091;1101;101926;-78
2021/11/02 15:01:26;;;;;;;30.07;16.60;;;;;;;12.55;70.42;99620.67;126460;1102;101652;-77
2021/11/02 15:04:02;;;;;;;29.20;15.70;;;;;;;12.51;70.35;99619.75;126298;1102;101747;-77
2021/11/02 15:06:33;;;;;;;33.05;17.65;;;;;;;12.47;70.58;99623.20;126321;1102;101300;-76
2021/11/02 15:09:05;;;;;;;29.93;17.00;;;;;;;12.44;70.76;99627.54;126270;1102;101804;-76
2021/11/02 15:11:35;;;;;;;33.17;17.60;;;;;;;12.40;70.65;99610.80;126301;1105;102095;-76
2021/11/02 15:14:05;;;;;;;32.17;17.60;;;;;;;12.38;71.13;99616.05;126245;1105;101700;-77
2021/11/02 15:16:42;;;;;;;31.17;17.10;;;;;;;12.39;70.98;99619.58;126360;1105;101844;-77
2021/11/02 15:19:11;;;;;;;31.73;16.90;;;;;;;12.40;71.15;99616.06;126288;1105;101630;-76
2021/11/02 15:21:41;;;;;;;32.43;16.73;;;;;;;12.43;70.98;99629.27;126375;1104;101796;-77
2021/11/02 15:24:22;;;;;;;27.10;15.20;;;;;;;12.44;71.04;99630.17;126292;1103;102859;-75
2021/11/02 15:26:55;;;;;;;29.83;16.33;;;;;;;12.45;70.99;99624.93;126294;1105;101860;-77
2021/11/02 15:29:29;;;;;;;30.45;16.77;;;;;;;12.47;71.40;99625.83;126325;1105;101489;-78
2021/11/02 15:32:05;;;;;;;32.27;18.03;;;;;;;12.48;71.62;99621.44;126285;1105;101645;-79
2021/11/02 15:34:38;;;;;;;30.07;16.23;;;;;;;12.45;71.38;99619.67;126288;1105;101545;-77
2021/11/02 15:37:09;;;;;;;31.13;18.10;;;;;;;12.43;71.68;99621.38;126289;1102;103021;-77
2021/11/02 15:39:40;;;;;;;32.27;17.17;;;;;;;12.40;71.83;99616.97;126241;1105;101878;-77
2021/11/02 15:42:23;;;;;;;33.77;17.97;;;;;;;12.38;72.09;99607.28;126321;1102;102020;-77
2021/11/02 15:44:55;;;;;;;33.60;18.83;;;;;;;12.36;72.11;99616.91;126301;1102;101706;-77
2021/11/02 15:47:32;;;;;;;33.00;18.40;;;;;;;12.35;72.20;99616.00;126386;1102;101566;-77
2021/11/02 15:50:07;;;;;;;30.90;18.13;;;;;;;12.34;72.18;99614.25;126244;1102;102674;-78
2021/11/02 15:52:38;;;;;;;35.37;19.27;;;;;;;12.34;72.49;99613.34;126427;1101;101679;-77
2021/11/02 15:55:10;;;;;;;36.37;19.90;;;;;;;12.32;72.42;99629.11;126313;1102;102102;-78
2021/11/02 15:57:46;;;;;;;35.35;18.92;;;;;;;12.32;72.81;99618.59;126295;1102;102071;-77
2021/11/02 16:00:18;;;;;;;33.77;19.27;;;;;;;12.33;73.04;99628.26;126604;1102;101599;-78
2021/11/02 16:02:50;;;;;;;30.43;17.50;;;;;;;12.33;73.08;99622.13;126417;1102;103020;-78
2021/11/02 16:05:25;;;;;;;33.37;17.93;;;;;;;12.35;72.77;99628.28;126271;1102;101981;-77
2021/11/02 16:07:57;;;;;;;30.80;17.67;;;;;;;12.35;73.26;99623.02;126320;1101;102084;-79
2021/11/02 16:10:27;;;;;;;32.20;18.17;;;;;;;12.35;73.55;99623.89;126517;1101;101150;-78
2021/11/02 16:13:03;;;;;;;32.23;17.63;;;;;;;12.37;73.38;99626.55;126579;1101;101147;-78
2021/11/02 16:15:36;;;;;;;30.33;16.70;;;;;;;12.38;74.25;99628.33;126281;1102;102650;-76